createdAt,value
2023-05-08T00:02:11.039Z,9.50
2023-05-08T00:04:37.660Z,8.70
2023-05-08T00:09:43.231Z,9.00
2023-05-08T00:12:09.845Z,8.57
2023-05-08T00:14:36.356Z,8.60
2023-05-08T00:17:03.250Z,8.80
2023-05-08T00:19:29.865Z,8.65
2023-05-08T00:21:56.524Z,8.23
2023-05-08T00:24:23.077Z,8.20
2023-05-08T00:26:49.656Z,8.20
2023-05-08T00:29:16.260Z,7.80
2023-05-08T00:31:42.857Z,8.15
2023-05-08T00:34:09.407Z,8.70
2023-05-08T00:36:35.981Z,8.40
2023-05-08T00:39:02.570Z,8.50
2023-05-08T00:41:29.432Z,8.27
2023-05-08T00:43:55.982Z,8.40
2023-05-08T00:46:22.785Z,8.13
2023-05-08T00:48:49.328Z,8.32
2023-05-08T00:51:16.410Z,8.20
2023-05-08T00:53:44.504Z,7.63
2023-05-08T00:56:14.286Z,8.15
2023-05-08T00:58:42.184Z,7.43
2023-05-08T01:01:08.948Z,7.72
2023-05-08T01:03:36.294Z,8.25
2023-05-08T01:06:04.843Z,7.68
2023-05-08T01:08:32.279Z,7.82
2023-05-08T01:11:22.532Z,7.97
2023-05-08T01:14:07.850Z,7.82
2023-05-08T01:16:46.549Z,7.72
2023-05-08T01:19:48.737Z,7.90
2023-05-08T01:22:33.665Z,7.78
2023-05-08T01:25:09.405Z,7.18
2023-05-08T01:27:44.929Z,7.63
2023-05-08T01:30:45.490Z,7.25
2023-05-08T01:33:27.343Z,7.43
2023-05-08T01:36:00.596Z,7.00
2023-05-08T01:38:47.919Z,7.43
2023-05-08T01:41:25.056Z,7.60
2023-05-08T01:44:15.685Z,6.95
2023-05-08T01:46:48.017Z,7.55
2023-05-08T01:49:25.427Z,6.93
2023-05-08T01:52:03.335Z,6.90
2023-05-08T01:54:56.515Z,6.30
2023-05-08T01:57:26.799Z,7.32
2023-05-08T01:59:56.090Z,6.95
2023-05-08T02:02:23.320Z,7.18
2023-05-08T02:04:51.864Z,7.88
2023-05-08T02:07:22.593Z,6.78
2023-05-08T02:09:51.544Z,7.15
2023-05-08T02:12:19.666Z,7.35
2023-05-08T02:14:48.621Z,7.15
2023-05-08T02:17:18.641Z,7.07
2023-05-08T02:19:47.386Z,7.18
2023-05-08T02:22:15.235Z,7.53
2023-05-08T02:24:43.685Z,7.10
2023-05-08T02:27:12.365Z,6.78
2023-05-08T02:29:39.079Z,7.28
2023-05-08T02:32:08.805Z,6.97
2023-05-08T02:34:37.171Z,7.07
2023-05-08T02:37:05.867Z,6.97
2023-05-08T02:39:35.706Z,7.28
2023-05-08T02:42:03.960Z,7.05
2023-05-08T02:44:31.020Z,6.75
2023-05-08T02:47:04.228Z,7.30
2023-05-08T02:49:44.183Z,6.65
2023-05-08T02:52:19.172Z,7.53
2023-05-08T02:55:01.404Z,6.97
2023-05-08T02:57:34.150Z,7.55
2023-05-08T03:00:14.741Z,7.20
2023-05-08T03:02:48.288Z,7.25
2023-05-08T03:05:20.780Z,6.82
2023-05-08T03:07:55.964Z,6.45
2023-05-08T03:10:28.156Z,7.40
2023-05-08T03:12:56.934Z,6.60
2023-05-08T03:15:41.996Z,6.75
2023-05-08T03:18:12.528Z,7.60
2023-05-08T03:20:42.930Z,7.35
2023-05-08T03:23:12.461Z,6.53
2023-05-08T03:25:42.311Z,7.65
2023-05-08T03:28:09.976Z,6.82
2023-05-08T03:30:41.993Z,6.95
2023-05-08T03:33:11.564Z,7.20
2023-05-08T03:35:39.457Z,6.20
2023-05-08T03:38:06.971Z,6.57
2023-05-08T03:40:42.595Z,6.53
2023-05-08T03:43:10.204Z,6.78
2023-05-08T03:45:40.096Z,6.53
2023-05-08T03:48:08.814Z,6.97
2023-05-08T03:50:37.050Z,6.88
2023-05-08T03:53:04.001Z,6.68
2023-05-08T03:55:31.723Z,6.85
2023-05-08T03:58:05.983Z,7.38
2023-05-08T04:00:39.825Z,6.70
2023-05-08T04:03:27.728Z,6.70
2023-05-08T04:06:13.841Z,7.07
2023-05-08T04:08:48.320Z,7.32
2023-05-08T04:11:51.953Z,7.07
2023-05-08T04:14:21.399Z,6.90
2023-05-08T04:16:51.762Z,7.05
2023-05-08T04:19:24.811Z,7.07
2023-05-08T04:24:25.446Z,6.80
2023-05-08T04:26:52.265Z,7.13
2023-05-08T04:29:19.341Z,6.85
2023-05-08T04:31:46.751Z,7.18
2023-05-08T04:34:14.093Z,7.30
2023-05-08T04:36:40.759Z,7.07
2023-05-08T04:39:07.294Z,6.93
2023-05-08T04:41:35.109Z,6.68
2023-05-08T04:44:03.834Z,7.13
2023-05-08T04:46:30.445Z,7.20
2023-05-08T04:48:57.090Z,7.38
2023-05-08T04:51:23.498Z,6.95
2023-05-08T04:53:49.908Z,7.50
2023-05-08T04:56:16.466Z,7.03
2023-05-08T04:58:42.908Z,7.38
2023-05-08T05:01:09.543Z,6.93
2023-05-08T05:03:36.175Z,7.20
2023-05-08T05:06:02.827Z,6.88
2023-05-08T05:08:29.436Z,6.78
2023-05-08T05:10:56.110Z,7.30
2023-05-08T05:13:22.727Z,7.03
2023-05-08T05:15:51.421Z,7.60
2023-05-08T05:18:18.442Z,7.10
2023-05-08T05:20:44.940Z,7.55
2023-05-08T05:23:12.250Z,7.53
2023-05-08T05:25:38.913Z,7.32
2023-05-08T05:28:05.382Z,7.47
2023-05-08T05:30:31.905Z,7.72
2023-05-08T05:32:58.911Z,7.53
2023-05-08T05:35:25.763Z,7.80
2023-05-08T05:37:52.452Z,7.93
2023-05-08T05:40:19.040Z,7.75
2023-05-08T05:42:49.725Z,7.93
2023-05-08T05:45:16.198Z,7.43
2023-05-08T05:47:50.137Z,7.50
2023-05-08T05:50:21.350Z,7.43
2023-05-08T05:52:48.003Z,7.47
2023-05-08T05:55:14.738Z,7.68
2023-05-08T05:57:41.474Z,8.05
2023-05-08T06:00:08.879Z,7.30
2023-05-08T06:02:37.017Z,7.70
2023-05-08T06:05:04.887Z,8.18
2023-05-08T06:09:59.756Z,7.95
2023-05-08T06:12:27.956Z,7.28
2023-05-08T06:14:54.906Z,7.53
2023-05-08T06:17:22.238Z,7.65
2023-05-08T06:19:50.613Z,7.50
2023-05-08T06:22:18.426Z,7.60
2023-05-08T06:24:45.352Z,8.02
2023-05-08T06:27:13.329Z,7.65
2023-05-08T06:29:39.957Z,7.85
2023-05-08T06:32:06.646Z,7.82
2023-05-08T06:34:33.251Z,8.32
2023-05-08T06:36:59.869Z,7.30
2023-05-08T06:39:26.422Z,7.00
2023-05-08T06:41:53.304Z,7.05
2023-05-08T06:44:19.876Z,7.55
2023-05-08T06:46:46.478Z,7.25
2023-05-08T06:49:13.125Z,7.00
2023-05-08T06:51:39.721Z,7.20
2023-05-08T06:54:08.345Z,7.68
2023-05-08T06:56:35.649Z,7.55
2023-05-08T06:59:08.397Z,7.63
2023-05-08T07:01:37.411Z,7.80
2023-05-08T07:04:05.023Z,7.78
2023-05-08T07:06:31.586Z,7.78
2023-05-08T07:08:58.168Z,7.70
2023-05-08T07:11:24.870Z,7.38
2023-05-08T07:13:51.416Z,7.72
2023-05-08T07:16:18.045Z,7.32
2023-05-08T07:18:44.814Z,7.45
2023-05-08T07:21:11.372Z,7.07
2023-05-08T07:23:37.865Z,8.45
2023-05-08T07:26:04.521Z,8.48
2023-05-08T07:28:30.999Z,8.00
2023-05-08T07:30:57.736Z,7.50
2023-05-08T07:33:24.920Z,7.32
2023-05-08T07:35:51.478Z,7.93
2023-05-08T07:38:18.117Z,8.07
2023-05-08T07:40:45.882Z,7.57
2023-05-08T07:43:13.186Z,7.60
2023-05-08T07:45:39.646Z,8.02
2023-05-08T07:48:07.660Z,8.23
2023-05-08T07:50:34.421Z,7.60
2023-05-08T07:53:01.071Z,8.38
2023-05-08T07:55:27.553Z,7.68
2023-05-08T07:57:54.136Z,7.28
2023-05-08T08:00:20.802Z,7.60
2023-05-08T08:02:47.523Z,7.13
2023-05-08T08:05:14.334Z,7.93
2023-05-08T08:07:41.242Z,7.90
2023-05-08T08:10:08.464Z,8.05
2023-05-08T08:12:35.229Z,7.85
2023-05-08T08:15:01.760Z,7.32
2023-05-08T08:17:29.052Z,7.22
2023-05-08T08:19:56.463Z,7.72
2023-05-08T08:22:24.128Z,7.43
2023-05-08T08:24:52.385Z,8.48
2023-05-08T08:27:20.736Z,7.82
2023-05-08T08:29:47.302Z,7.13
2023-05-08T08:32:13.938Z,7.75
2023-05-08T08:34:40.502Z,7.88
2023-05-08T08:37:07.030Z,7.35
2023-05-08T08:39:34.538Z,7.20
2023-05-08T08:42:01.502Z,7.93
2023-05-08T08:44:28.316Z,7.60
2023-05-08T08:46:55.662Z,8.10
2023-05-08T08:49:29.813Z,7.43
2023-05-08T08:52:01.468Z,7.22
2023-05-08T08:54:31.530Z,7.22
2023-05-08T08:57:01.902Z,7.05
2023-05-08T08:59:29.940Z,7.50
2023-05-08T09:02:06.423Z,7.18
2023-05-08T09:04:33.106Z,7.85
2023-05-08T09:07:00.352Z,7.38
2023-05-08T09:09:28.819Z,7.72
2023-05-08T09:11:55.460Z,8.32
2023-05-08T09:14:22.105Z,8.15
2023-05-08T09:16:48.769Z,7.72
2023-05-08T09:19:16.320Z,8.00
2023-05-08T09:21:43.026Z,9.52
2023-05-08T09:24:09.958Z,8.15
2023-05-08T09:26:40.218Z,8.80
2023-05-08T09:29:09.668Z,8.82
2023-05-08T09:31:39.843Z,9.10
2023-05-08T09:34:11.207Z,8.13
2023-05-08T09:36:40.086Z,7.95
2023-05-08T09:39:11.749Z,6.88
2023-05-08T09:41:38.392Z,8.52
2023-05-08T09:44:09.864Z,8.07
2023-05-08T09:46:36.464Z,8.75
2023-05-08T09:49:03.937Z,9.93
2023-05-08T09:51:32.038Z,9.40
2023-05-08T09:54:00.449Z,9.98
2023-05-08T09:56:38.868Z,9.88
2023-05-08T09:59:22.203Z,9.55
2023-05-08T10:01:48.928Z,9.93
2023-05-08T10:04:15.486Z,10.45
2023-05-08T10:06:42.069Z,9.88
2023-05-08T10:09:15.748Z,10.82
2023-05-08T10:11:53.085Z,9.90
2023-05-08T10:14:20.468Z,10.23
2023-05-08T10:16:54.322Z,10.57
2023-05-08T10:19:25.438Z,9.80
2023-05-08T10:21:54.820Z,10.45
2023-05-08T10:24:41.647Z,12.18
2023-05-08T10:27:19.483Z,11.48
2023-05-08T10:29:56.932Z,10.88
2023-05-08T10:32:24.902Z,10.55
2023-05-08T10:35:00.127Z,10.20
2023-05-08T10:37:29.738Z,11.63
2023-05-08T10:39:58.245Z,11.30
2023-05-08T10:42:26.086Z,11.63
2023-05-08T10:44:53.861Z,11.45
2023-05-08T10:47:33.562Z,10.50
2023-05-08T10:50:17.484Z,10.80
2023-05-08T10:53:03.338Z,12.10
2023-05-08T10:55:32.230Z,12.05
2023-05-08T10:58:02.496Z,11.50
2023-05-08T11:00:51.873Z,12.55
2023-05-08T11:03:30.402Z,13.52
2023-05-08T11:05:59.773Z,12.48
2023-05-08T11:08:28.110Z,11.32
2023-05-08T11:11:05.154Z,11.20
2023-05-08T11:13:38.397Z,11.60
2023-05-08T11:16:11.000Z,12.30
2023-05-08T11:21:23.953Z,11.75
2023-05-08T11:23:57.971Z,11.95
2023-05-08T11:26:40.394Z,13.95
2023-05-08T11:29:17.117Z,12.80
2023-05-08T11:31:50.808Z,12.15
2023-05-08T11:34:41.925Z,13.40
2023-05-08T11:37:19.155Z,11.50
2023-05-08T11:39:46.424Z,11.63
2023-05-08T11:42:24.956Z,11.50
2023-05-08T11:45:08.216Z,12.50
2023-05-08T11:47:42.012Z,12.18
2023-05-08T11:50:09.816Z,11.63
2023-05-08T11:52:37.779Z,11.23
2023-05-08T11:55:06.217Z,11.05
2023-05-08T11:57:33.366Z,11.75
2023-05-08T12:00:08.008Z,11.43
2023-05-08T12:02:43.758Z,11.88
2023-05-08T12:05:11.633Z,9.38
2023-05-08T12:07:46.558Z,9.43
2023-05-08T12:12:53.604Z,9.82
2023-05-08T12:15:20.126Z,9.50
2023-05-08T12:17:47.053Z,8.98
2023-05-08T12:20:16.263Z,9.55
2023-05-08T12:22:50.589Z,8.43
2023-05-08T12:25:18.373Z,8.57
2023-05-08T12:27:45.524Z,7.97
2023-05-08T12:30:14.770Z,8.45
2023-05-08T12:32:42.445Z,8.50
2023-05-08T12:35:10.813Z,8.60
2023-05-08T12:37:37.408Z,8.40
2023-05-08T12:40:05.419Z,9.55
2023-05-08T12:42:50.999Z,7.82
2023-05-08T12:45:27.077Z,8.70
2023-05-08T12:47:58.200Z,7.63
2023-05-08T12:50:27.814Z,9.02
2023-05-08T12:52:54.433Z,8.05
2023-05-08T12:55:28.974Z,9.27
2023-05-08T12:58:15.103Z,7.75
2023-05-08T13:00:46.679Z,8.98
2023-05-08T13:03:21.710Z,8.40
2023-05-08T13:05:48.488Z,7.55
2023-05-08T13:08:15.082Z,7.20
2023-05-08T13:10:46.277Z,8.32
2023-05-08T13:13:18.639Z,7.90
2023-05-08T13:15:45.958Z,7.38
2023-05-08T13:18:13.126Z,7.22
2023-05-08T13:20:40.286Z,6.25
2023-05-08T13:23:07.482Z,6.40
2023-05-08T13:25:36.149Z,4.65
2023-05-08T13:28:03.716Z,4.82
2023-05-08T13:30:30.288Z,5.63
2023-05-08T13:32:57.093Z,4.45
2023-05-08T13:35:24.959Z,6.38
2023-05-08T13:37:51.685Z,6.00
2023-05-08T13:40:18.231Z,6.70
2023-05-08T13:42:44.717Z,6.88
2023-05-08T13:45:13.345Z,6.30
2023-05-08T13:47:43.208Z,6.45
2023-05-08T13:50:11.278Z,6.97
2023-05-08T13:52:39.045Z,7.00
2023-05-08T13:55:13.197Z,6.55
2023-05-08T13:57:40.570Z,5.90
2023-05-08T14:00:09.423Z,5.53
2023-05-08T14:02:37.513Z,4.80
2023-05-08T14:05:05.683Z,4.80
2023-05-08T14:07:32.281Z,4.93
2023-05-08T14:09:58.843Z,4.68
2023-05-08T14:12:25.421Z,5.15
2023-05-08T14:14:51.930Z,4.13
2023-05-08T14:17:18.434Z,4.30
2023-05-08T14:19:46.198Z,4.18
2023-05-08T14:22:13.008Z,2.90
2023-05-08T14:24:39.957Z,2.90
2023-05-08T14:27:06.633Z,2.88
2023-05-08T14:29:34.198Z,2.20
2023-05-08T14:32:01.471Z,2.80
2023-05-08T14:34:28.107Z,3.17
2023-05-08T14:36:54.984Z,3.47
2023-05-08T14:39:21.885Z,3.00
2023-05-08T14:42:05.803Z,3.47
2023-05-08T14:44:35.108Z,3.05
2023-05-08T14:47:01.627Z,3.83
2023-05-08T14:49:37.298Z,4.75
2023-05-08T14:52:05.668Z,4.00
2023-05-08T14:54:32.396Z,3.83
2023-05-08T14:56:59.035Z,4.30
2023-05-08T14:59:25.701Z,4.47
2023-05-08T15:01:52.337Z,4.28
2023-05-08T15:04:19.120Z,3.70
2023-05-08T15:06:45.782Z,3.33
2023-05-08T15:09:12.399Z,2.80
2023-05-08T15:11:38.931Z,2.03
2023-05-08T15:14:06.152Z,2.40
2023-05-08T15:16:32.776Z,2.20
2023-05-08T15:19:00.018Z,2.25
2023-05-08T15:21:27.410Z,1.90
2023-05-08T15:23:54.908Z,1.90
2023-05-08T15:26:22.390Z,1.88
2023-05-08T15:28:49.352Z,2.00
2023-05-08T15:31:16.123Z,1.90
2023-05-08T15:33:44.921Z,1.58
2023-05-08T15:36:13.383Z,2.08
2023-05-08T15:38:41.034Z,2.40
2023-05-08T15:41:08.094Z,1.92
2023-05-08T15:43:34.549Z,16.98
2023-05-08T15:46:01.193Z,5.10
2023-05-08T15:48:27.798Z,2.33
2023-05-08T15:50:54.631Z,1.98
2023-05-08T15:53:21.280Z,2.35
2023-05-08T15:55:47.880Z,2.53
2023-05-08T15:58:14.533Z,2.72
2023-05-08T16:00:45.324Z,2.40
2023-05-08T16:03:12.316Z,2.40
2023-05-08T16:05:39.622Z,2.08
2023-05-08T16:08:07.574Z,1.67
2023-05-08T16:10:34.386Z,2.05
2023-05-08T16:13:00.984Z,1.98
2023-05-08T16:15:27.549Z,2.05
2023-05-08T16:17:54.214Z,1.92
2023-05-08T16:20:20.982Z,1.60
2023-05-08T16:22:47.482Z,1.23
2023-05-08T16:25:14.537Z,1.13
2023-05-08T16:27:41.351Z,1.50
2023-05-08T16:30:08.330Z,1.80
2023-05-08T16:32:34.838Z,0.98
2023-05-08T16:35:01.315Z,1.42
2023-05-08T16:37:27.778Z,1.60
2023-05-08T16:39:54.218Z,1.65
2023-05-08T16:42:20.915Z,1.88
2023-05-08T16:44:47.490Z,1.73
2023-05-08T16:47:13.912Z,1.60
2023-05-08T16:49:40.617Z,1.70
2023-05-08T16:52:07.328Z,1.67
2023-05-08T16:54:33.990Z,1.77
2023-05-08T16:57:00.472Z,1.90
2023-05-08T16:59:26.950Z,1.95
2023-05-08T17:01:53.666Z,2.58
2023-05-08T17:04:20.122Z,2.35
2023-05-08T17:06:46.642Z,3.03
2023-05-08T17:09:13.147Z,3.75
2023-05-08T17:11:39.846Z,3.55
2023-05-08T17:14:06.444Z,3.67
2023-05-08T17:16:33.526Z,3.22
2023-05-08T17:19:00.529Z,3.20
2023-05-08T17:21:27.164Z,3.15
2023-05-08T17:23:53.725Z,3.15
2023-05-08T17:26:21.737Z,2.72
2023-05-08T17:28:48.380Z,2.47
2023-05-08T17:31:16.027Z,1.95
2023-05-08T17:33:42.612Z,1.30
2023-05-08T17:36:09.374Z,1.10
2023-05-08T17:38:38.353Z,1.10
2023-05-08T17:41:04.912Z,0.90
2023-05-08T17:43:31.527Z,0.80
2023-05-08T17:45:58.138Z,0.80
2023-05-08T17:48:24.717Z,0.60
2023-05-08T17:50:51.322Z,0.50
2023-05-08T17:53:17.883Z,0.57
2023-05-08T17:55:44.393Z,0.50
2023-05-08T17:58:10.805Z,0.75
2023-05-08T18:00:37.762Z,0.70
2023-05-08T18:03:04.678Z,0.70
2023-05-08T18:05:31.589Z,0.70
2023-05-08T18:07:58.208Z,0.60
2023-05-08T18:12:53.676Z,0.60
2023-05-08T18:15:20.224Z,0.70
2023-05-08T18:17:47.517Z,0.57
2023-05-08T18:20:14.477Z,0.70
2023-05-08T18:22:41.137Z,0.70
2023-05-08T18:25:08.134Z,0.70
2023-05-08T18:27:34.652Z,0.60
2023-05-08T18:30:01.096Z,0.63
2023-05-08T18:32:27.789Z,0.68
2023-05-08T18:34:54.431Z,0.60
2023-05-08T18:37:21.012Z,0.60
2023-05-08T18:39:47.465Z,0.70
2023-05-08T18:42:16.659Z,0.90
2023-05-08T18:44:43.195Z,0.82
2023-05-08T18:47:09.765Z,1.10
2023-05-08T18:49:36.306Z,1.00
2023-05-08T18:52:03.094Z,1.00
2023-05-08T18:54:29.521Z,0.95
2023-05-08T18:56:56.166Z,1.20
2023-05-08T18:59:22.752Z,1.25
2023-05-08T19:01:50.592Z,1.00
2023-05-08T19:04:17.180Z,0.80
2023-05-08T19:06:43.801Z,0.90
2023-05-08T19:09:10.459Z,1.10
2023-05-08T19:11:37.101Z,1.00
2023-05-08T19:14:04.005Z,1.10
2023-05-08T19:16:30.542Z,0.90
2023-05-08T19:18:57.236Z,1.10
2023-05-08T19:21:23.842Z,0.93
2023-05-08T19:23:51.002Z,0.98
2023-05-08T19:26:18.312Z,1.10
2023-05-08T19:28:44.810Z,1.20
2023-05-08T19:31:11.428Z,1.10
2023-05-08T19:33:38.023Z,1.15
2023-05-08T19:36:04.570Z,1.00
2023-05-08T19:38:31.139Z,1.23
2023-05-08T19:40:58.143Z,1.08
2023-05-08T19:43:26.089Z,1.17
2023-05-08T19:45:52.933Z,1.25
2023-05-08T19:48:20.184Z,1.13
2023-05-08T19:50:46.883Z,1.30
2023-05-08T19:53:13.624Z,1.23
2023-05-08T19:55:40.148Z,1.50
2023-05-08T19:58:06.720Z,1.15
2023-05-08T20:00:33.182Z,1.40
2023-05-08T20:02:59.731Z,1.33
2023-05-08T20:05:26.335Z,1.33
2023-05-08T20:07:52.884Z,1.25
2023-05-08T20:10:19.430Z,1.42
2023-05-08T20:12:45.960Z,1.48
2023-05-08T20:15:12.724Z,1.70
2023-05-08T20:17:39.295Z,1.80
2023-05-08T20:20:06.513Z,1.83
2023-05-08T20:22:32.969Z,1.52
2023-05-08T20:25:01.060Z,1.50
2023-05-08T20:27:28.622Z,1.80
2023-05-08T20:29:55.053Z,1.50
2023-05-08T20:32:21.635Z,1.83
2023-05-08T20:34:48.229Z,1.70
2023-05-08T20:37:16.024Z,1.73
2023-05-08T20:39:43.322Z,1.75
2023-05-08T20:42:09.765Z,1.80
2023-05-08T20:44:36.306Z,1.83
2023-05-08T20:47:02.869Z,1.70
2023-05-08T20:49:29.384Z,2.05
2023-05-08T20:51:56.068Z,1.80
2023-05-08T20:54:22.680Z,1.52
2023-05-08T20:56:49.304Z,2.00
2023-05-08T20:59:16.727Z,1.90
2023-05-08T21:01:43.465Z,2.20
2023-05-08T21:04:10.171Z,2.33
2023-05-08T21:06:36.611Z,3.55
2023-05-08T21:09:04.572Z,3.95
2023-05-08T21:11:33.247Z,3.97
2023-05-08T21:13:59.707Z,3.40
2023-05-08T21:16:26.887Z,3.53
2023-05-08T21:18:55.344Z,2.80
2023-05-08T21:21:23.330Z,2.42
2023-05-08T21:23:49.941Z,1.95
2023-05-08T21:26:16.437Z,2.17
2023-05-08T21:28:42.963Z,2.47
2023-05-08T21:31:09.464Z,2.35
2023-05-08T21:33:36.086Z,2.13
2023-05-08T21:36:02.679Z,2.13
2023-05-08T21:38:29.794Z,2.35
2023-05-08T21:40:56.331Z,2.50
2023-05-08T21:43:22.872Z,2.40
2023-05-08T21:45:49.438Z,2.95
2023-05-08T21:48:16.095Z,2.60
2023-05-08T21:50:42.697Z,3.30
2023-05-08T21:53:09.198Z,2.97
2023-05-08T21:55:35.750Z,3.15
2023-05-08T21:58:02.191Z,3.60
2023-05-08T22:00:28.923Z,3.42
2023-05-08T22:02:55.602Z,3.85
2023-05-08T22:05:23.570Z,4.10
2023-05-08T22:07:50.145Z,4.20
2023-05-08T22:10:16.829Z,4.72
2023-05-08T22:12:43.377Z,5.07
2023-05-08T22:15:25.586Z,4.25
2023-05-08T22:17:56.036Z,4.80
2023-05-08T22:20:22.661Z,4.97
2023-05-08T22:22:49.261Z,5.03
2023-05-08T22:25:16.128Z,4.55
2023-05-08T22:27:42.768Z,5.03
2023-05-08T22:30:09.495Z,5.00
2023-05-08T22:32:36.647Z,4.90
2023-05-08T22:35:03.501Z,5.18
2023-05-08T22:37:30.398Z,4.82
2023-05-08T22:39:56.944Z,4.80
2023-05-08T22:42:24.219Z,4.40
2023-05-08T22:44:51.162Z,4.47
2023-05-08T22:47:17.819Z,4.97
2023-05-08T22:49:44.271Z,3.78
2023-05-08T22:52:10.819Z,4.40
2023-05-08T22:54:37.399Z,3.70
2023-05-08T22:57:03.960Z,4.35
2023-05-08T22:59:30.507Z,4.38
2023-05-08T23:01:58.198Z,4.35
2023-05-08T23:04:25.004Z,5.28
2023-05-08T23:06:51.641Z,4.47
2023-05-08T23:09:18.179Z,4.35
2023-05-08T23:11:44.640Z,4.85
2023-05-08T23:14:11.083Z,4.25
2023-05-08T23:16:37.682Z,5.18
2023-05-08T23:19:04.633Z,5.18
2023-05-08T23:21:32.042Z,5.55
2023-05-08T23:23:58.983Z,6.72
2023-05-08T23:26:26.083Z,5.63
2023-05-08T23:28:52.660Z,6.00
2023-05-08T23:31:19.275Z,6.80
2023-05-08T23:33:45.930Z,7.05
2023-05-08T23:36:12.349Z,6.55
2023-05-08T23:38:38.879Z,6.75
2023-05-08T23:41:05.477Z,6.05
2023-05-08T23:43:32.067Z,7.70
2023-05-08T23:45:58.708Z,6.78
2023-05-08T23:48:26.509Z,7.13
2023-05-08T23:50:53.433Z,6.60
2023-05-08T23:53:20.003Z,8.15
2023-05-08T23:55:49.853Z,8.18
2023-05-08T23:58:17.368Z,8.98
